Broadfield, United Kingdom
Current Conditions -  °F | °C
As of 2:20 AM on Saturday 29 Nov 2014 (Local Time) from EGKK Reporting Station
Clear Clear  
Wind Chill: 50°   Ceiling: Unl
Heat Index: 50°   Visibility: 6mi
Dew Point: 48°   Wind: 6mph
Humidity: 94%   Direction: 80°E
Pressure: 29.74"   Gusts: NA
Location:  51.1°N, 0.21°W
Report Text: EGKK 290220Z 08005KT CAVOK 10/09 Q1007
Loading
Personal Weather Stations






























Interactive Weather Map New forecast layout! Learn more

10-Day Weather Forecast

Advertisements
Track Severe Weather on mobile